Time;durP1;ratioP1;P1;durP2;ratioP2;P2;SDS_P1;SDS_P2;PMS_P1;PMS_P2;Temp;Humidity;BMP_temperature;BMP_pressure;BME280_temperature;BME280_humidity;BME280_pressure;Samples;Min_cycle;Max_cycle;Signal;HPM_P1;HPM_P2
2023/02/09 00:01:24;;;;;;;22.13;20.30;;;-0.90;99.90;;;;;;5070064;28;20985;-72
2023/02/09 00:03:52;;;;;;;22.77;20.67;;;-0.90;99.90;;;;;;5057169;28;20474;-72
2023/02/09 00:06:21;;;;;;;23.60;20.93;;;-1.00;99.90;;;;;;5054720;28;20491;-72
2023/02/09 00:08:48;;;;;;;22.60;20.10;;;-1.00;99.90;;;;;;5054572;28;20536;-71
2023/02/09 00:11:19;;;;;;;23.67;21.73;;;-1.10;99.90;;;;;;5058446;28;20806;-71
2023/02/09 00:13:45;;;;;;;25.60;20.83;;;-1.10;99.90;;;;;;5056004;28;20475;-72
2023/02/09 00:16:14;;;;;;;23.33;21.13;;;-1.10;99.90;;;;;;5056347;28;20670;-71
2023/02/09 00:18:41;;;;;;;22.93;20.50;;;-1.20;99.90;;;;;;5057043;28;20828;-72
2023/02/09 00:21:10;;;;;;;22.60;20.73;;;-1.30;99.90;;;;;;5050313;28;20453;-71
2023/02/09 00:23:40;;;;;;;27.17;22.20;;;-1.30;99.90;;;;;;5055947;28;20576;-70
2023/02/09 00:26:09;;;;;;;24.57;21.53;;;-1.30;99.90;;;;;;5054038;28;20467;-73
2023/02/09 00:28:36;;;;;;;28.57;21.40;;;-1.30;99.90;;;;;;5061514;28;20468;-72
2023/02/09 00:31:07;;;;;;;24.63;22.00;;;-1.30;99.90;;;;;;5057810;28;20497;-71
2023/02/09 00:33:36;;;;;;;23.73;21.47;;;-1.30;99.90;;;;;;5059130;28;20476;-72
2023/02/09 00:36:05;;;;;;;24.10;21.50;;;-1.30;99.90;;;;;;5060782;28;20486;-72
2023/02/09 00:38:32;;;;;;;23.90;21.50;;;-1.20;99.90;;;;;;5062411;28;20479;-71
2023/02/09 00:40:58;;;;;;;24.27;20.57;;;-1.30;99.90;;;;;;5062723;28;20880;-72
2023/02/09 00:43:25;;;;;;;24.70;21.20;;;-1.40;99.90;;;;;;5055287;28;20848;-71
2023/02/09 00:45:52;;;;;;;22.30;20.60;;;-1.40;99.90;;;;;;5055875;28;20473;-71
2023/02/09 00:48:19;;;;;;;26.57;21.60;;;-1.30;99.90;;;;;;5054700;28;20464;-70
2023/02/09 00:50:49;;;;;;;23.37;21.30;;;-1.30;99.90;;;;;;5054176;28;20816;-71
2023/02/09 00:53:16;;;;;;;34.17;22.13;;;-1.40;99.90;;;;;;5061321;28;20469;-71
2023/02/09 00:55:43;;;;;;;24.30;21.80;;;-1.50;99.90;;;;;;5049802;28;20485;-71
2023/02/09 00:58:10;;;;;;;21.67;19.67;;;-1.50;99.90;;;;;;5053515;28;20845;-72
2023/02/09 01:00:37;;;;;;;25.00;22.40;;;-1.60;99.90;;;;;;5057664;28;20490;-72
2023/02/09 01:03:04;;;;;;;24.50;22.20;;;-1.60;99.90;;;;;;5055859;28;20992;-72
2023/02/09 01:05:32;;;;;;;23.70;21.40;;;-1.70;99.90;;;;;;5062541;28;20950;-71
2023/02/09 01:08:01;;;;;;;23.67;20.57;;;-1.70;99.90;;;;;;5055368;28;20506;-71
2023/02/09 01:10:28;;;;;;;23.23;20.83;;;-1.80;99.90;;;;;;5054559;28;20995;-71
2023/02/09 01:12:55;;;;;;;24.90;21.70;;;-1.80;99.90;;;;;;5058356;28;20466;-72
2023/02/09 01:15:21;;;;;;;25.30;22.83;;;-1.80;99.90;;;;;;5056255;28;20623;-73
2023/02/09 01:17:49;;;;;;;24.00;21.70;;;-1.90;99.90;;;;;;5053299;28;20458;-72
2023/02/09 01:20:16;;;;;;;24.90;22.60;;;-1.90;99.90;;;;;;5064031;28;20531;-72
2023/02/09 01:22:43;;;;;;;24.97;22.00;;;-1.90;99.90;;;;;;5054120;28;20475;-72
2023/02/09 01:25:12;;;;;;;29.67;22.30;;;-1.80;99.90;;;;;;5052591;28;20988;-72
2023/02/09 01:27:39;;;;;;;24.50;21.93;;;-1.70;99.90;;;;;;5049980;28;20460;-72
2023/02/09 01:30:07;;;;;;;32.17;23.67;;;-1.80;99.90;;;;;;5063680;28;20572;-73
2023/02/09 01:32:36;;;;;;;25.63;21.90;;;-1.80;99.90;;;;;;5060806;28;20473;-73
2023/02/09 01:35:02;;;;;;;24.53;22.40;;;-1.90;99.90;;;;;;5054283;28;20463;-72
2023/02/09 01:37:30;;;;;;;23.33;21.37;;;-2.00;99.90;;;;;;5053762;28;20575;-71
2023/02/09 01:39:58;;;;;;;23.57;21.30;;;-2.00;99.90;;;;;;5058082;28;20461;-73
2023/02/09 01:42:26;;;;;;;25.03;22.83;;;-2.00;99.90;;;;;;5060338;28;20481;-72
2023/02/09 01:45:16;;;;;;;24.73;22.37;;;-2.10;99.90;;;;;;5058465;28;20468;-73
2023/02/09 01:47:47;;;;;;;24.47;21.97;;;-2.10;99.90;;;;;;5056792;28;20456;-72
2023/02/09 01:50:15;;;;;;;26.57;22.70;;;-2.00;99.90;;;;;;5055193;28;20552;-69
2023/02/09 01:52:43;;;;;;;27.00;24.30;;;-2.00;99.90;;;;;;5054934;28;20473;-72
2023/02/09 01:55:14;;;;;;;24.17;22.00;;;-2.10;99.90;;;;;;5053201;28;20816;-71
2023/02/09 01:57:47;;;;;;;25.60;23.20;;;-2.20;99.90;;;;;;5062963;28;20930;-71
2023/02/09 02:00:17;;;;;;;32.83;22.50;;;-2.30;99.90;;;;;;5052899;28;20982;-69
2023/02/09 02:02:47;;;;;;;25.50;21.67;;;-2.30;99.90;;;;;;5060589;28;20478;-71
2023/02/09 02:05:15;;;;;;;24.60;22.00;;;-2.40;99.90;;;;;;5051815;28;20963;-72
2023/02/09 02:07:46;;;;;;;24.03;21.77;;;-2.50;99.90;;;;;;5055536;28;20489;-70
2023/02/09 02:10:13;;;;;;;23.87;21.43;;;-2.50;99.90;;;;;;5051781;28;20477;-70
2023/02/09 02:12:41;;;;;;;24.83;22.50;;;-2.60;99.90;;;;;;5055530;28;20462;-70
2023/02/09 02:15:09;;;;;;;25.33;22.83;;;-2.60;99.90;;;;;;5052997;28;20482;-71
2023/02/09 02:17:51;;;;;;;25.80;22.20;;;-2.70;99.90;;;;;;5057764;28;20496;-72
2023/02/09 02:21:00;;;;;;;23.50;21.40;;;-2.80;99.90;;;;;;5056265;28;20852;-71
2023/02/09 02:23:33;;;;;;;24.73;22.13;;;-2.80;99.90;;;;;;5043771;28;20467;-70
2023/02/09 02:26:32;;;;;;;26.00;23.40;;;-2.80;99.90;;;;;;5053519;28;20822;-70
2023/02/09 02:29:31;;;;;;;26.03;23.33;;;-2.80;99.90;;;;;;5051882;28;20520;-70
2023/02/09 02:32:23;;;;;;;25.43;21.20;;;-2.90;99.90;;;;;;5050028;28;20472;-72
2023/02/09 02:34:57;;;;;;;24.27;21.67;;;-2.90;99.90;;;;;;5048854;28;20458;-70
2023/02/09 02:37:35;;;;;;;23.57;21.40;;;-2.90;99.90;;;;;;5057360;28;20479;-72
2023/02/09 02:40:10;;;;;;;25.23;22.73;;;-2.90;99.90;;;;;;5060322;28;20465;-72
2023/02/09 02:42:51;;;;;;;24.87;22.17;;;-3.00;99.90;;;;;;5055202;28;21006;-73
2023/02/09 02:45:33;;;;;;;28.00;23.83;;;-3.20;99.90;;;;;;5052352;28;20468;-71
2023/02/09 02:48:09;;;;;;;25.13;22.43;;;-3.30;99.90;;;;;;5054827;28;20461;-70
2023/02/09 02:50:40;;;;;;;23.00;20.97;;;-3.30;99.90;;;;;;5049630;28;20476;-70
2023/02/09 02:53:10;;;;;;;26.13;22.07;;;-3.30;99.90;;;;;;5059679;28;20456;-70
2023/02/09 02:55:39;;;;;;;24.83;22.33;;;-3.30;99.90;;;;;;5060060;28;20977;-70
2023/02/09 02:58:09;;;;;;;24.33;21.53;;;-3.40;99.90;;;;;;5053757;28;20922;-71
2023/02/09 03:00:39;;;;;;;24.23;20.10;;;-3.40;99.90;;;;;;5054502;28;20459;-70
2023/02/09 03:03:13;;;;;;;23.30;21.27;;;-3.50;99.90;;;;;;5053246;28;21072;-69
2023/02/09 03:05:39;;;;;;;23.10;20.90;;;-3.60;99.90;;;;;;5051653;28;20497;-71
2023/02/09 03:08:06;;;;;;;22.17;20.33;;;-3.60;99.90;;;;;;5063588;28;20463;-71
2023/02/09 03:10:35;;;;;;;26.60;21.33;;;-3.60;99.90;;;;;;5056616;28;20945;-73
2023/02/09 03:13:11;;;;;;;23.70;20.07;;;-3.70;99.90;;;;;;5057260;28;20502;-73
2023/02/09 03:15:49;;;;;;;23.37;20.63;;;-3.90;99.90;;;;;;5056546;28;20466;-70
2023/02/09 03:18:27;;;;;;;22.57;20.67;;;-3.90;99.90;;;;;;5048880;28;20531;-70
2023/02/09 03:20:59;;;;;;;22.33;20.13;;;-3.80;99.90;;;;;;5050848;28;20901;-71
2023/02/09 03:23:32;;;;;;;21.77;19.87;;;-3.80;99.90;;;;;;5060621;28;20520;-72
2023/02/09 03:26:06;;;;;;;23.53;21.03;;;-3.90;99.90;;;;;;5053961;28;20513;-73
2023/02/09 03:28:36;;;;;;;25.40;21.27;;;-3.90;99.90;;;;;;5052233;28;20474;-72
2023/02/09 03:31:04;;;;;;;30.80;22.90;;;-4.00;99.90;;;;;;5053962;28;20955;-72
2023/02/09 03:33:34;;;;;;;28.50;23.33;;;-4.00;99.90;;;;;;5055322;28;20476;-71
2023/02/09 03:36:03;;;;;;;40.23;27.83;;;-3.90;99.90;;;;;;5054214;28;20764;-71
2023/02/09 03:38:30;;;;;;;44.90;28.90;;;-3.90;99.90;;;;;;5057136;28;20496;-71
2023/02/09 03:40:57;;;;;;;30.43;22.93;;;-3.90;99.90;;;;;;5055763;28;20480;-72
2023/02/09 03:44:25;;;;;;;33.50;24.30;;;-3.90;99.90;;;;;;5051642;28;20523;-70
2023/02/09 03:46:11;;;;;;;27.37;23.17;;;-3.90;99.90;;;;;;5049545;28;20482;-69
2023/02/09 03:48:39;;;;;;;29.37;24.60;;;-3.90;99.90;;;;;;5055038;28;23122;-70
2023/02/09 03:51:07;;;;;;;41.57;24.67;;;-3.90;99.90;;;;;;5053502;28;20471;-71
2023/02/09 03:53:36;;;;;;;25.87;23.13;;;-3.90;99.90;;;;;;5062166;28;20601;-70
2023/02/09 03:56:03;;;;;;;35.77;25.07;;;-4.00;99.90;;;;;;5058598;28;20877;-71
2023/02/09 03:58:30;;;;;;;28.70;25.60;;;-4.00;99.90;;;;;;5054536;28;20509;-72
2023/02/09 04:01:04;;;;;;;42.20;34.87;;;-4.00;99.90;;;;;;5053150;28;20929;-72
2023/02/09 04:03:31;;;;;;;27.30;24.60;;;-3.90;99.90;;;;;;5061785;28;20534;-71
2023/02/09 04:06:00;;;;;;;29.90;24.40;;;-3.70;99.90;;;;;;5060830;28;20931;-70
2023/02/09 04:08:28;;;;;;;24.40;22.00;;;-3.70;99.90;;;;;;5062403;28;20455;-70
2023/02/09 04:10:55;;;;;;;28.87;22.70;;;-3.70;99.90;;;;;;5059295;28;20555;-72
2023/02/09 04:13:22;;;;;;;22.57;20.47;;;-3.70;99.90;;;;;;5056486;28;20455;-69
2023/02/09 04:15:49;;;;;;;22.67;20.47;;;-3.80;99.90;;;;;;5056720;28;20470;-72
2023/02/09 04:18:15;;;;;;;23.13;21.03;;;-3.80;99.90;;;;;;5055714;28;20580;-69
2023/02/09 04:20:42;;;;;;;26.50;21.63;;;-3.80;99.90;;;;;;5054430;28;20472;-72
2023/02/09 04:23:11;;;;;;;28.73;22.50;;;-3.90;99.90;;;;;;5061109;28;20470;-71
2023/02/09 04:25:38;;;;;;;27.67;21.63;;;-3.90;99.90;;;;;;5053992;28;20806;-69
2023/02/09 04:28:05;;;;;;;24.30;22.10;;;-3.90;99.90;;;;;;5056332;28;20458;-72
2023/02/09 04:30:32;;;;;;;23.40;20.77;;;-4.00;99.90;;;;;;5050457;28;20472;-70
2023/02/09 04:32:59;;;;;;;21.50;19.60;;;-4.00;99.90;;;;;;5060767;28;20476;-70
2023/02/09 04:35:25;;;;;;;23.60;20.53;;;-4.00;99.90;;;;;;5060046;28;20550;-69
2023/02/09 04:37:52;;;;;;;24.00;21.50;;;-4.00;99.90;;;;;;5054237;28;20852;-69
2023/02/09 04:40:20;;;;;;;24.10;21.60;;;-4.00;99.90;;;;;;5056008;28;20541;-72
2023/02/09 04:42:48;;;;;;;26.10;20.67;;;-3.90;99.90;;;;;;5056552;28;20494;-72
2023/02/09 04:45:15;;;;;;;28.90;20.17;;;-3.90;99.90;;;;;;5055752;28;20475;-71
2023/02/09 04:47:41;;;;;;;26.93;21.97;;;-3.90;99.90;;;;;;5050181;28;20574;-71
2023/02/09 04:50:09;;;;;;;22.70;20.50;;;-4.00;99.90;;;;;;5060491;28;20452;-70
2023/02/09 04:52:36;;;;;;;23.90;21.20;;;-4.00;99.90;;;;;;5058667;28;20466;-71
2023/02/09 04:55:03;;;;;;;37.47;21.33;;;-4.10;99.90;;;;;;5056943;28;20462;-70
2023/02/09 05:00:16;;;;;;;25.03;22.40;;;-4.10;99.90;;;;;;5054893;28;20463;-71
2023/02/09 05:02:43;;;;;;;23.93;21.40;;;-4.20;99.90;;;;;;5058906;28;20483;-69
2023/02/09 05:05:09;;;;;;;24.17;21.80;;;-4.20;99.90;;;;;;5052309;28;20462;-69
2023/02/09 05:07:36;;;;;;;24.23;22.03;;;-4.20;99.90;;;;;;5058842;28;20450;-70
2023/02/09 05:10:03;;;;;;;25.40;21.27;;;-4.20;99.90;;;;;;5055321;28;20958;-69
2023/02/09 05:12:32;;;;;;;36.70;22.03;;;-4.20;99.90;;;;;;5059865;28;20961;-72
2023/02/09 05:14:58;;;;;;;25.60;20.23;;;-4.20;99.90;;;;;;5061408;28;20474;-72
2023/02/09 05:17:25;;;;;;;21.77;19.63;;;-4.20;99.90;;;;;;5059609;28;20481;-70
2023/02/09 05:19:52;;;;;;;22.70;20.43;;;-4.20;99.90;;;;;;5057786;28;20946;-71
2023/02/09 05:22:20;;;;;;;26.07;20.40;;;-4.40;99.90;;;;;;5055844;28;20482;-71
2023/02/09 05:24:47;;;;;;;24.77;22.10;;;-4.60;99.90;;;;;;5057793;28;20591;-71
2023/02/09 05:27:14;;;;;;;24.00;21.60;;;-4.70;99.90;;;;;;5047158;28;20986;-73
2023/02/09 05:29:42;;;;;;;24.50;21.90;;;-4.70;99.90;;;;;;5055228;28;20564;-71
2023/02/09 05:32:12;;;;;;;22.73;20.47;;;-4.80;99.90;;;;;;5058972;28;20938;-73
2023/02/09 05:34:39;;;;;;;26.20;21.67;;;-4.70;99.90;;;;;;5051322;28;20595;-74
2023/02/09 05:37:05;;;;;;;28.07;21.53;;;-4.60;99.90;;;;;;5054134;28;20617;-73
2023/02/09 05:39:32;;;;;;;24.60;21.33;;;-4.60;99.90;;;;;;5049462;28;20459;-73
2023/02/09 05:42:17;;;;;;;24.63;22.03;;;-4.60;99.90;;;;;;5053113;28;20601;-72
2023/02/09 05:44:47;;;;;;;27.73;21.57;;;-4.70;99.90;;;;;;5062008;28;20472;-73
2023/02/09 05:47:16;;;;;;;22.70;20.30;;;-4.70;99.90;;;;;;5061092;28;20452;-73
2023/02/09 05:49:42;;;;;;;21.77;19.73;;;-4.80;99.90;;;;;;5050286;28;20833;-72
2023/02/09 05:52:10;;;;;;;26.17;22.30;;;-4.80;99.90;;;;;;5061221;28;20501;-71
2023/02/09 05:54:37;;;;;;;30.70;22.77;;;-4.80;99.90;;;;;;5055678;28;20459;-73
2023/02/09 05:57:04;;;;;;;24.47;21.33;;;-4.70;99.90;;;;;;5057541;28;20489;-74
2023/02/09 05:59:32;;;;;;;25.03;19.47;;;-4.60;99.90;;;;;;5062014;28;20463;-71
2023/02/09 06:02:01;;;;;;;26.23;21.10;;;-4.50;99.90;;;;;;5060102;28;20483;-72
2023/02/09 06:04:28;;;;;;;27.17;20.87;;;-4.40;99.90;;;;;;5049205;28;20467;-73
2023/02/09 06:06:55;;;;;;;29.03;21.80;;;-4.40;99.90;;;;;;5053813;28;20460;-70
2023/02/09 06:09:22;;;;;;;26.13;21.43;;;-4.30;99.90;;;;;;5056961;28;20510;-72
2023/02/09 06:11:49;;;;;;;24.63;22.13;;;-4.20;99.90;;;;;;5049091;28;20471;-74
2023/02/09 06:14:17;;;;;;;32.33;22.47;;;-4.20;99.90;;;;;;5061027;28;20451;-72
2023/02/09 06:16:44;;;;;;;27.77;23.03;;;-4.20;99.90;;;;;;5059938;28;20825;-73
2023/02/09 06:19:13;;;;;;;36.60;20.43;;;-4.20;99.90;;;;;;5053241;28;20486;-72
2023/02/09 06:21:40;;;;;;;27.73;21.63;;;-4.20;99.90;;;;;;5055158;28;20470;-73
2023/02/09 06:24:07;;;;;;;23.87;21.27;;;-4.30;99.90;;;;;;5059895;28;20870;-72
2023/02/09 06:26:35;;;;;;;24.37;21.40;;;-4.30;99.90;;;;;;5055228;28;20953;-73
2023/02/09 06:29:02;;;;;;;27.07;21.43;;;-4.30;99.90;;;;;;5055789;28;20447;-71
2023/02/09 06:31:30;;;;;;;35.53;21.23;;;-4.40;99.90;;;;;;5058225;28;20831;-72
2023/02/09 06:33:57;;;;;;;25.40;19.90;;;-4.40;99.90;;;;;;5058383;28;20824;-74
2023/02/09 06:36:25;;;;;;;24.67;20.10;;;-4.50;99.90;;;;;;5053703;28;20467;-72
2023/02/09 06:38:51;;;;;;;28.63;21.83;;;-4.50;99.90;;;;;;5060688;28;20482;-71
2023/02/09 06:41:18;;;;;;;26.00;21.00;;;-4.60;99.90;;;;;;5052714;28;20564;-70
2023/02/09 06:43:46;;;;;;;22.10;19.77;;;-4.50;99.90;;;;;;5053984;28;20468;-73
2023/02/09 06:46:13;;;;;;;43.10;21.27;;;-4.50;99.90;;;;;;5060846;28;20498;-71
2023/02/09 06:48:41;;;;;;;26.13;20.20;;;-4.50;99.90;;;;;;5057134;28;20817;-71
2023/02/09 06:51:10;;;;;;;26.80;21.03;;;-4.40;99.90;;;;;;5048589;28;20811;-70
2023/02/09 06:53:39;;;;;;;25.43;20.37;;;-4.30;99.90;;;;;;5055002;28;20468;-73
2023/02/09 06:56:07;;;;;;;24.70;20.63;;;-4.20;99.90;;;;;;5058811;28;21013;-72
2023/02/09 06:58:34;;;;;;;34.23;20.93;;;-4.20;99.90;;;;;;5059450;28;20926;-72
2023/02/09 07:01:05;;;;;;;22.40;20.20;;;-4.30;99.90;;;;;;5053477;28;20475;-73
2023/02/09 07:03:32;;;;;;;26.07;21.80;;;-4.30;99.90;;;;;;5056887;28;20455;-71
2023/02/09 07:06:04;;;;;;;34.00;21.40;;;-4.30;99.90;;;;;;5053252;28;20460;-73
2023/02/09 07:08:31;;;;;;;23.63;21.17;;;-4.30;99.90;;;;;;5057156;28;20970;-71
2023/02/09 07:11:03;;;;;;;23.37;21.07;;;-4.30;99.90;;;;;;5052643;28;20462;-71
2023/02/09 07:13:30;;;;;;;24.90;22.40;;;-4.30;99.90;;;;;;5060250;28;20498;-74
2023/02/09 07:15:58;;;;;;;27.93;23.37;;;-4.30;99.90;;;;;;5044485;28;20537;-71
2023/02/09 07:18:25;;;;;;;25.33;21.77;;;-4.30;99.90;;;;;;5054788;28;20494;-72
2023/02/09 07:20:55;;;;;;;27.13;22.50;;;-4.20;99.90;;;;;;5049870;28;20908;-70
2023/02/09 07:23:23;;;;;;;26.23;23.37;;;-4.20;99.90;;;;;;5057330;28;20465;-73
2023/02/09 07:25:50;;;;;;;24.60;22.03;;;-4.10;99.90;;;;;;5052571;28;20459;-72
2023/02/09 07:28:20;;;;;;;29.33;22.43;;;-4.00;99.90;;;;;;5059523;28;20470;-71
2023/02/09 07:30:48;;;;;;;24.97;22.33;;;-4.00;99.90;;;;;;5057046;28;21059;-71
2023/02/09 07:33:16;;;;;;;25.47;22.80;;;-3.90;99.90;;;;;;5058170;28;20464;-72
2023/02/09 07:35:42;;;;;;;40.83;23.40;;;-3.80;99.90;;;;;;5046978;28;20459;-69
2023/02/09 07:38:10;;;;;;;45.23;24.60;;;-3.80;99.90;;;;;;5061414;28;20497;-71
2023/02/09 07:40:37;;;;;;;31.80;26.60;;;-3.80;99.90;;;;;;5060870;28;20837;-72
2023/02/09 07:43:04;;;;;;;31.70;22.50;;;-3.70;99.90;;;;;;5061232;28;20552;-71
2023/02/09 07:45:33;;;;;;;29.00;22.50;;;-3.70;99.90;;;;;;5062056;28;20824;-70
2023/02/09 07:48:00;;;;;;;29.67;22.60;;;-3.50;99.90;;;;;;5055441;28;20462;-70
2023/02/09 07:50:27;;;;;;;25.77;22.83;;;-3.40;99.90;;;;;;5052646;28;20468;-71
2023/02/09 07:52:55;;;;;;;33.67;22.47;;;-3.30;99.90;;;;;;5059830;28;20493;-72
2023/02/09 07:55:22;;;;;;;32.47;21.93;;;-3.30;99.90;;;;;;5051584;28;20910;-70
2023/02/09 07:57:49;;;;;;;39.80;23.20;;;-3.20;99.90;;;;;;5057149;28;20507;-71
2023/02/09 08:00:17;;;;;;;41.40;22.60;;;-3.10;99.90;;;;;;5056733;28;20463;-70
2023/02/09 08:02:46;;;;;;;36.63;24.37;;;-3.00;99.90;;;;;;5059327;28;20493;-70
2023/02/09 08:05:19;;;;;;;30.80;22.23;;;-3.00;99.90;;;;;;5057138;28;20520;-71
2023/02/09 08:07:46;;;;;;;36.80;23.73;;;-2.90;99.90;;;;;;5055416;28;20473;-73
2023/02/09 08:10:13;;;;;;;31.03;22.40;;;-2.90;99.90;;;;;;5054926;28;21216;-72
2023/02/09 08:15:26;;;;;;;31.83;23.13;;;-2.60;99.90;;;;;;5059113;28;20779;-71
2023/02/09 08:17:59;;;;;;;25.77;22.97;;;-2.50;99.90;;;;;;5054266;28;20577;-71
2023/02/09 08:20:28;;;;;;;27.30;24.60;;;-2.40;99.90;;;;;;5054569;28;20470;-73
2023/02/09 08:23:01;;;;;;;29.60;24.57;;;-2.20;99.90;;;;;;5050112;28;20933;-71
2023/02/09 08:25:28;;;;;;;29.90;25.03;;;-2.10;99.90;;;;;;5050202;28;20739;-71
2023/02/09 08:27:57;;;;;;;27.70;24.33;;;-2.00;99.90;;;;;;5054293;28;20461;-71
2023/02/09 08:30:24;;;;;;;33.67;23.30;;;-1.90;99.90;;;;;;5053298;28;20486;-73
2023/02/09 08:32:50;;;;;;;32.00;26.37;;;-1.80;99.90;;;;;;5058171;28;20916;-73
2023/02/09 08:35:18;;;;;;;31.97;28.47;;;-1.60;99.90;;;;;;5057110;28;20466;-71
2023/02/09 08:37:45;;;;;;;28.87;24.50;;;-1.50;99.90;;;;;;5052274;28;20484;-70
2023/02/09 08:40:14;;;;;;;29.47;23.97;;;-1.40;99.90;;;;;;5050127;28;20472;-69
2023/02/09 08:42:41;;;;;;;37.87;24.83;;;-1.40;99.90;;;;;;5060233;28;21049;-73
2023/02/09 08:45:08;;;;;;;27.43;23.03;;;-1.20;99.90;;;;;;5053036;28;20540;-73
2023/02/09 08:47:35;;;;;;;30.33;25.47;;;-1.20;99.90;;;;;;5055028;28;20454;-71
2023/02/09 08:50:02;;;;;;;32.90;25.90;;;-1.10;99.90;;;;;;5053942;28;20467;-72
2023/02/09 08:52:30;;;;;;;34.57;26.07;;;-1.00;99.90;;;;;;5054414;28;20483;-71
2023/02/09 08:54:56;;;;;;;31.37;27.47;;;-0.90;99.90;;;;;;5051559;28;20489;-69
2023/02/09 08:57:24;;;;;;;41.43;27.00;;;-0.80;99.90;;;;;;5047294;28;20472;-73
2023/02/09 08:59:51;;;;;;;30.20;26.97;;;-0.70;99.90;;;;;;5053658;28;20483;-72
2023/02/09 09:02:19;;;;;;;28.23;25.33;;;-0.70;99.90;;;;;;5062639;28;20481;-74
2023/02/09 09:04:45;;;;;;;34.97;26.03;;;-0.70;99.90;;;;;;5059016;28;20478;-71
2023/02/09 09:07:12;;;;;;;34.93;26.00;;;-0.60;99.90;;;;;;5056850;28;20458;-73
2023/02/09 09:09:40;;;;;;;37.77;27.40;;;-0.50;99.90;;;;;;5057584;28;20467;-71
2023/02/09 09:12:07;;;;;;;35.10;26.80;;;-0.40;99.90;;;;;;5062259;28;20470;-72
2023/02/09 09:14:34;;;;;;;37.53;27.33;;;-0.30;99.90;;;;;;5053467;28;20470;-71
2023/02/09 09:17:01;;;;;;;38.00;26.57;;;-0.10;99.90;;;;;;5053550;28;20468;-70
2023/02/09 09:19:28;;;;;;;36.70;27.47;;;0.10;99.90;;;;;;5054451;28;20498;-72
2023/02/09 09:21:55;;;;;;;33.80;27.20;;;0.10;99.90;;;;;;5040095;28;20548;-72
2023/02/09 09:24:26;;;;;;;34.00;26.20;;;0.10;99.90;;;;;;5048641;28;20463;-72
2023/02/09 09:26:55;;;;;;;34.13;27.00;;;0.10;99.90;;;;;;5058064;28;20455;-70
2023/02/09 09:29:22;;;;;;;33.90;25.70;;;0.20;99.90;;;;;;5045958;28;20560;-72
2023/02/09 09:31:49;;;;;;;35.30;28.50;;;0.30;99.90;;;;;;5047846;28;20870;-70
2023/02/09 09:34:17;;;;;;;34.50;27.17;;;0.40;99.90;;;;;;5056819;28;20474;-70
2023/02/09 09:36:43;;;;;;;34.93;27.93;;;0.50;99.90;;;;;;5050161;28;20468;-73
2023/02/09 09:39:10;;;;;;;32.03;26.77;;;0.50;99.90;;;;;;5056797;28;20557;-70
2023/02/09 09:41:38;;;;;;;41.67;27.00;;;0.60;99.90;;;;;;5061007;28;20501;-71
2023/02/09 09:44:14;;;;;;;39.37;28.07;;;0.70;99.90;;;;;;5058491;28;20475;-72
2023/02/09 09:46:45;;;;;;;31.87;27.60;;;0.80;99.90;;;;;;5051155;28;20817;-71
2023/02/09 09:49:21;;;;;;;38.77;28.27;;;0.90;99.90;;;;;;5049852;28;20985;-71
2023/02/09 09:51:51;;;;;;;40.10;28.53;;;1.10;99.90;;;;;;5054787;28;20510;-70
2023/02/09 09:54:23;;;;;;;41.43;29.60;;;1.30;99.90;;;;;;5044976;28;20463;-72
2023/02/09 09:56:51;;;;;;;36.10;28.33;;;1.50;99.90;;;;;;5050647;28;20479;-71
2023/02/09 09:59:23;;;;;;;36.57;29.00;;;1.70;99.90;;;;;;5057459;28;20495;-72
2023/02/09 10:01:51;;;;;;;32.50;29.20;;;1.80;99.90;;;;;;5049008;28;20483;-69
2023/02/09 10:04:20;;;;;;;30.20;26.90;;;1.90;99.90;;;;;;5050428;28;20475;-71
2023/02/09 10:06:51;;;;;;;34.30;27.13;;;2.00;99.90;;;;;;5052879;28;20897;-72
2023/02/09 10:09:28;;;;;;;34.57;27.53;;;2.10;99.90;;;;;;5056908;28;20468;-70
2023/02/09 10:12:07;;;;;;;33.10;26.53;;;2.10;99.90;;;;;;5054178;28;20463;-71
2023/02/09 10:14:37;;;;;;;38.70;28.80;;;2.10;99.90;;;;;;5051986;28;20493;-70
2023/02/09 10:17:03;;;;;;;36.47;28.93;;;2.10;99.90;;;;;;5044994;28;21029;-70
2023/02/09 10:19:31;;;;;;;36.63;27.67;;;2.20;99.90;;;;;;5050761;28;21052;-70
2023/02/09 10:21:58;;;;;;;45.47;31.30;;;2.20;99.90;;;;;;5045042;28;20541;-73
2023/02/09 10:24:26;;;;;;;36.70;28.53;;;2.30;99.90;;;;;;5062280;28;20763;-70
2023/02/09 10:27:07;;;;;;;41.67;28.90;;;2.50;99.90;;;;;;5057525;28;20467;-71
2023/02/09 10:29:36;;;;;;;46.00;28.13;;;2.60;99.90;;;;;;5054028;28;20467;-71
2023/02/09 10:32:14;;;;;;;47.43;29.43;;;2.50;99.90;;;;;;5048500;28;20466;-70
2023/02/09 10:34:45;;;;;;;45.00;28.30;;;2.50;99.90;;;;;;5048077;28;20561;-70
2023/02/09 10:37:27;;;;;;;47.97;29.37;;;2.60;99.90;;;;;;5046816;28;20509;-72
2023/02/09 10:40:13;;;;;;;43.50;27.87;;;2.80;99.90;;;;;;5053371;28;20487;-72
2023/02/09 10:42:43;;;;;;;58.50;29.13;;;2.90;99.90;;;;;;5044767;28;20564;-71
2023/02/09 10:45:21;;;;;;;39.33;28.83;;;3.10;99.90;;;;;;5054972;28;20866;-71
2023/02/09 10:47:57;;;;;;;33.63;26.70;;;3.30;99.90;;;;;;5055617;28;20856;-72
2023/02/09 10:50:25;;;;;;;28.60;25.60;;;3.70;99.90;;;;;;5049338;28;20468;-72
2023/02/09 10:52:58;;;;;;;31.40;27.10;;;4.00;99.90;;;;;;5051733;28;20459;-70
2023/02/09 10:55:29;;;;;;;29.90;26.87;;;4.20;99.90;;;;;;5048948;28;20471;-69
2023/02/09 10:58:27;;;;;;;32.20;25.53;;;4.40;99.90;;;;;;5048498;28;20464;-72
2023/02/09 11:01:04;;;;;;;30.20;25.43;;;4.90;99.90;;;;;;5057668;28;20501;-71
2023/02/09 11:03:31;;;;;;;34.03;26.27;;;5.40;99.90;;;;;;5052088;28;20465;-71
2023/02/09 11:06:06;;;;;;;29.80;26.90;;;5.70;99.90;;;;;;5052953;28;20495;-72
2023/02/09 11:08:42;;;;;;;27.77;25.13;;;5.90;99.90;;;;;;5050539;28;20536;-68
2023/02/09 11:11:20;;;;;;;29.70;26.10;;;6.20;99.90;;;;;;5051691;28;20493;-70
2023/02/09 11:13:46;;;;;;;29.23;26.03;;;6.20;99.90;;;;;;5051897;28;20832;-71
2023/02/09 11:16:27;;;;;;;31.03;26.37;;;6.40;99.90;;;;;;5047352;28;20470;-72
2023/02/09 11:19:00;;;;;;;34.10;27.00;;;6.50;99.90;;;;;;5057602;28;20543;-71
2023/02/09 11:21:39;;;;;;;27.67;25.17;;;7.00;99.90;;;;;;5052068;28;20474;-70
2023/02/09 11:24:12;;;;;;;28.33;25.63;;;7.30;99.90;;;;;;5051256;28;20467;-69
2023/02/09 11:26:46;;;;;;;28.30;25.30;;;7.60;99.90;;;;;;5053534;28;20574;-71
2023/02/09 11:29:22;;;;;;;36.60;29.87;;;7.80;99.90;;;;;;5045830;28;20551;-71
2023/02/09 11:32:21;;;;;;;36.20;26.37;;;7.90;99.90;;;;;;5054326;28;20929;-69
2023/02/09 11:35:01;;;;;;;28.10;25.80;;;8.20;99.90;;;;;;5046114;28;20962;-69
2023/02/09 11:37:38;;;;;;;28.27;24.70;;;8.20;99.90;;;;;;5052039;28;20470;-70
2023/02/09 11:40:22;;;;;;;30.27;26.00;;;8.40;99.50;;;;;;5046617;28;20525;-69
2023/02/09 11:42:57;;;;;;;26.63;23.83;;;8.60;97.40;;;;;;5047258;28;20492;-69
2023/02/09 11:45:30;;;;;;;25.93;23.73;;;8.40;96.50;;;;;;5051400;28;21202;-67
2023/02/09 11:48:04;;;;;;;27.83;25.03;;;8.10;96.30;;;;;;5051011;28;20570;-70
2023/02/09 11:50:40;;;;;;;29.43;25.53;;;8.10;97.20;;;;;;5054829;28;20786;-69
2023/02/09 11:53:16;;;;;;;29.70;26.53;;;8.50;98.20;;;;;;5043808;28;20478;-72
2023/02/09 11:55:47;;;;;;;30.90;25.20;;;8.80;98.60;;;;;;5043825;28;20474;-72
2023/02/09 11:58:40;;;;;;;28.10;25.40;;;9.10;96.50;;;;;;5049163;28;20754;-71
2023/02/09 12:01:18;;;;;;;28.10;25.67;;;9.10;96.90;;;;;;5054900;28;20502;-68
2023/02/09 12:03:56;;;;;;;27.07;24.27;;;9.80;95.50;;;;;;5050432;28;20792;-70
2023/02/09 12:06:24;;;;;;;26.87;24.67;;;9.70;90.60;;;;;;5050495;28;20550;-68
2023/02/09 12:09:01;;;;;;;25.50;23.40;;;10.00;85.00;;;;;;5050752;28;20459;-69
2023/02/09 12:11:41;;;;;;;25.60;23.40;;;9.60;84.80;;;;;;5049910;28;20533;-69
2023/02/09 12:14:46;;;;;;;25.07;23.17;;;9.60;83.90;;;;;;5049933;28;20877;-72
2023/02/09 12:17:17;;;;;;;28.43;25.60;;;9.30;81.70;;;;;;5010338;28;20471;-69
2023/02/09 12:19:53;;;;;;;26.50;24.10;;;9.20;81.50;;;;;;5058146;28;20499;-72
2023/02/09 12:22:50;;;;;;;26.80;24.70;;;9.50;81.40;;;;;;5050732;28;20524;-71
2023/02/09 12:25:59;;;;;;;28.03;25.67;;;9.40;79.80;;;;;;5062138;28;20465;-68
2023/02/09 12:28:44;;;;;;;27.97;25.63;;;9.10;77.40;;;;;;5056437;28;20548;-68
2023/02/09 12:31:19;;;;;;;27.03;24.70;;;9.20;79.70;;;;;;5050075;28;20912;-72
2023/02/09 12:34:11;;;;;;;27.50;25.30;;;9.40;77.50;;;;;;5050485;28;20958;-69
2023/02/09 12:37:16;;;;;;;26.63;24.40;;;8.80;78.80;;;;;;5053154;28;20509;-70
2023/02/09 12:40:21;;;;;;;27.40;25.10;;;8.90;78.10;;;;;;5051345;28;20499;-70
2023/02/09 12:43:23;;;;;;;27.20;24.80;;;8.60;76.30;;;;;;5052862;28;20482;-71
2023/02/09 12:46:16;;;;;;;27.40;25.10;;;8.60;78.90;;;;;;5052986;28;21017;-72
2023/02/09 12:49:04;;;;;;;26.37;24.17;;;8.90;79.20;;;;;;5049525;28;20459;-72
2023/02/09 12:51:50;;;;;;;26.47;24.30;;;9.40;80.50;;;;;;5046830;28;20463;-68
2023/02/09 12:54:40;;;;;;;28.20;25.70;;;9.40;77.90;;;;;;5051221;28;20471;-69
2023/02/09 12:57:55;;;;;;;26.03;24.00;;;9.10;78.10;;;;;;5053187;28;20490;-73